Aérodrome :
LOGIN :

S'inscrire | Disclaimer

   EN    FR    IT 

 










Légende :    VFR   VFR Marginal   IFR   IFR Intensif   IFR Très Intensif
Visi : 
Plafond : 
>= 8 km
>= 3000ft
5 à 8 km
1000 à 3000 ft
1500m à 5 km
500 à 1000 ft
800 à 1500m
200 à 500 ft
< 800m
< 200 ft
Symboles :   Orages  Brouillard  Fortes neiges  Fortes précipitations  Vent > 20 kt
SIGMETs :   Divers  Orages  Givrage  Turbulence  Onde Orograph.  Cendres Volcan.







- Altitude de l'aérodrome : 416 ft
- Code IATA : OVD


LEAS - Asturias

DERNIER METAR :
  • 201130Z 06007KT 010V110 CAVOK 18/12 Q1016 TEMPO 3000 BR

METARs EXPIRÉS :
  • 201100Z 05005KT 330V110 CAVOK 18/14 Q1017 TEMPO 3000 BR
  • 201030Z 07007KT 020V130 9999 FEW014 19/12 Q1017 TEMPO 3000 BR
  • 201000Z 09006KT 020V160 9999 FEW014 18/12 Q1017 TEMPO 3000 BR
  • 200930Z 11007KT 060V160 9999 FEW014 17/11 Q1017 TEMPO 3000 BR
  • 200900Z 09006KT 050V150 9999 FEW014 17/12 Q1017 TEMPO 3000 BR

TAF TAF LEAS
Valide du 20 à 09h jusqu'au 21 à 09h UTC


200800Z 2009/2109 07009KT 9999 FEW010 TX18/2015Z TN11/2105Z
TEMPO 2020/2108 3000 BR BKN010
PROB30
TEMPO 2020/2107 1500 BCFG BKN005
Pas de NOTAMs connus pour ce terrain.
1 SIGMET publié pour la FIR Madrid (LECM) :
 
Orages noyés dans la masse
LECM SIGMET 3 VALID 201100/201300 LEVA
LECM MADRID FIR/UIR EMBD TS FCST WI N4149 W00213 - N4104 W00203 - N3944 W00548 - N4031 W00649 - N4109 W00641 - N4149 W00213 TOP FL320 STNR NC=



MET'MAP, la Météo Aéronautique d'un coup d'oeil ! - Copyright ORBIFLY Décembre 2007 - Disclaimer

ORBIFLY MET'MAP TEAM :

Programmation & Développement : Alexandra Zaïnal
Conception & Développement : Baudouin d'Aumeries
Co-Programmation & Développement : Marc-Olivier Méhu
Soutien technique & logistique : Manuel Goepfert

Contact : metmap@orbifly.com




SOURCES & CREDITS :

   NOAA